Time;durP1;ratioP1;P1;durP2;ratioP2;P2;SDS_P1;SDS_P2;PMS_P1;PMS_P2;Temp;Humidity;BMP_temperature;BMP_pressure;BME280_temperature;BME280_humidity;BME280_pressure;Samples;Min_cycle;Max_cycle;Signal;HPM_P1;HPM_P2
2024/01/04 00:04:52;;;;;;;0.80;0.60;;;12.50;35.10;;;;;;10346898;28;20763;-74
2024/01/04 00:09:55;;;;;;;0.53;0.50;;;12.40;35.00;;;;;;10345180;28;20227;-74
2024/01/04 00:15:03;;;;;;;1.40;0.60;;;12.30;35.10;;;;;;10355297;28;20229;-74
2024/01/04 00:20:09;;;;;;;0.57;0.57;;;12.30;35.30;;;;;;10354089;28;20237;-74
2024/01/04 00:25:12;;;;;;;0.60;0.53;;;12.20;35.30;;;;;;10358979;28;20699;-74
2024/01/04 00:30:18;;;;;;;0.63;0.60;;;12.20;35.40;;;;;;10352135;28;20726;-74
2024/01/04 00:35:22;;;;;;;0.63;0.60;;;12.10;35.60;;;;;;10349395;28;20712;-74
2024/01/04 00:40:25;;;;;;;2.20;0.70;;;12.10;35.70;;;;;;10346689;28;20245;-75
2024/01/04 00:45:29;;;;;;;0.63;0.60;;;12.00;35.80;;;;;;10352593;28;20747;-74
2024/01/04 00:50:32;;;;;;;2.03;0.70;;;12.00;36.30;;;;;;10349749;28;20243;-74
2024/01/04 00:55:36;;;;;;;1.00;0.80;;;11.90;36.20;;;;;;10349171;28;20244;-74
2024/01/04 01:00:41;;;;;;;0.93;0.60;;;11.90;36.40;;;;;;10349736;28;20244;-74
2024/01/04 01:05:44;;;;;;;1.43;0.70;;;11.90;36.60;;;;;;10349180;28;20222;-74
2024/01/04 01:10:47;;;;;;;0.80;0.60;;;11.80;36.50;;;;;;10350972;28;20613;-74
2024/01/04 01:15:52;;;;;;;1.57;0.70;;;11.80;36.50;;;;;;10347336;28;20304;-74
2024/01/04 01:20:55;;;;;;;0.93;0.60;;;11.80;36.70;;;;;;10352377;28;20733;-74
2024/01/04 01:25:58;;;;;;;1.17;0.77;;;11.70;36.90;;;;;;10345686;28;20238;-74
2024/01/04 01:31:03;;;;;;;1.40;0.73;;;11.70;36.70;;;;;;10345282;28;20225;-74
2024/01/04 01:36:07;;;;;;;2.50;0.80;;;11.70;36.90;;;;;;10353807;28;20313;-74
2024/01/04 01:41:10;;;;;;;1.67;0.80;;;11.70;36.80;;;;;;10352050;28;20225;-74
2024/01/04 01:46:15;;;;;;;1.90;0.90;;;11.80;36.80;;;;;;10349561;28;20230;-74
2024/01/04 01:51:19;;;;;;;1.40;0.67;;;11.80;36.90;;;;;;10347248;28;20234;-74
2024/01/04 01:56:22;;;;;;;1.53;0.77;;;11.80;36.70;;;;;;10342956;28;20250;-74
2024/01/04 02:01:26;;;;;;;1.40;0.90;;;11.80;36.80;;;;;;10344734;28;20285;-74
2024/01/04 02:06:30;;;;;;;2.30;1.00;;;11.80;36.70;;;;;;10344336;28;20238;-74
2024/01/04 02:11:33;;;;;;;1.20;0.83;;;11.90;36.70;;;;;;10347287;28;20238;-74
2024/01/04 02:16:38;;;;;;;0.93;0.70;;;11.90;36.60;;;;;;10352190;28;20234;-74
2024/01/04 02:21:41;;;;;;;1.50;0.80;;;11.90;36.30;;;;;;10346351;28;20296;-74
2024/01/04 02:26:45;;;;;;;0.97;0.70;;;11.90;36.90;;;;;;10346537;28;20230;-74
2024/01/04 02:31:49;;;;;;;2.30;0.80;;;11.90;36.10;;;;;;10347222;28;20249;-75
2024/01/04 02:36:52;;;;;;;1.40;0.80;;;12.00;36.10;;;;;;10348180;28;20728;-74
2024/01/04 02:41:58;;;;;;;1.93;0.77;;;12.00;36.00;;;;;;10344721;28;20234;-74
2024/01/04 02:47:01;;;;;;;0.90;0.80;;;12.00;36.00;;;;;;10350368;28;20226;-74
2024/01/04 02:52:04;;;;;;;2.43;0.80;;;11.90;36.00;;;;;;10348744;28;20230;-74
2024/01/04 02:57:09;;;;;;;1.57;0.70;;;12.00;36.10;;;;;;10342022;28;20260;-74
2024/01/04 03:02:12;;;;;;;2.03;0.90;;;12.00;36.20;;;;;;10347224;28;20223;-74
2024/01/04 03:07:15;;;;;;;1.17;0.70;;;12.00;36.10;;;;;;10347625;28;20226;-74
2024/01/04 03:12:20;;;;;;;1.20;0.70;;;11.90;36.10;;;;;;10353735;28;20253;-74
2024/01/04 03:17:23;;;;;;;2.30;0.80;;;11.90;36.10;;;;;;10357431;28;20234;-74
2024/01/04 03:22:26;;;;;;;2.83;0.70;;;11.90;36.20;;;;;;10357925;28;20664;-74
2024/01/04 03:27:31;;;;;;;4.17;0.90;;;11.80;35.90;;;;;;10356738;28;21007;-74
2024/01/04 03:32:34;;;;;;;1.27;0.73;;;11.90;36.00;;;;;;10356358;28;20244;-74
2024/01/04 03:37:37;;;;;;;0.93;0.77;;;11.90;35.90;;;;;;10357814;28;20245;-74
2024/01/04 03:42:42;;;;;;;2.53;0.80;;;11.90;35.90;;;;;;10354441;28;20237;-74
2024/01/04 03:47:45;;;;;;;2.00;0.63;;;11.90;36.10;;;;;;10350952;28;20230;-74
2024/01/04 03:52:48;;;;;;;2.37;0.90;;;11.90;36.10;;;;;;10354899;28;20226;-74
2024/01/04 03:57:52;;;;;;;2.17;1.10;;;11.90;36.00;;;;;;10353783;28;20323;-74
2024/01/04 04:02:56;;;;;;;2.33;0.97;;;11.80;36.20;;;;;;10355098;28;20234;-74
2024/01/04 04:07:59;;;;;;;1.13;0.77;;;11.80;36.30;;;;;;10357307;28;20226;-74
2024/01/04 04:13:04;;;;;;;1.67;0.83;;;11.70;36.40;;;;;;10356193;28;20226;-74
2024/01/04 04:18:07;;;;;;;1.67;0.77;;;11.60;36.60;;;;;;10350867;28;20705;-74
2024/01/04 04:23:10;;;;;;;2.70;0.80;;;11.50;36.60;;;;;;10353610;28;20238;-74
2024/01/04 04:28:15;;;;;;;0.80;0.80;;;11.40;36.90;;;;;;10351261;28;20280;-74
2024/01/04 04:33:18;;;;;;;0.80;0.60;;;11.30;37.20;;;;;;10352875;28;20226;-74
2024/01/04 04:38:21;;;;;;;2.33;0.80;;;11.30;37.10;;;;;;10352133;28;20345;-74
2024/01/04 04:43:26;;;;;;;1.53;0.83;;;11.30;37.30;;;;;;10352086;28;20739;-74
2024/01/04 04:48:31;;;;;;;1.70;0.60;;;11.20;37.50;;;;;;10349519;28;20234;-74
2024/01/04 04:53:34;;;;;;;1.23;0.60;;;11.20;37.40;;;;;;10352526;28;20261;-74
2024/01/04 04:58:39;;;;;;;1.10;0.70;;;11.10;37.50;;;;;;10350526;28;20712;-74
2024/01/04 05:03:42;;;;;;;1.80;0.83;;;11.00;37.70;;;;;;10352244;28;20258;-74
2024/01/04 05:08:48;;;;;;;0.97;0.50;;;11.00;37.60;;;;;;10350691;28;20254;-74
2024/01/04 05:13:52;;;;;;;2.40;0.70;;;11.00;37.90;;;;;;10346820;28;20325;-74
2024/01/04 05:18:55;;;;;;;1.10;0.80;;;10.90;39.00;;;;;;10354199;28;20234;-74
2024/01/04 05:23:59;;;;;;;0.83;0.60;;;10.80;38.10;;;;;;10351672;28;20234;-74
2024/01/04 05:29:05;;;;;;;1.90;0.77;;;10.80;38.40;;;;;;10349844;28;20226;-74
2024/01/04 05:34:09;;;;;;;3.23;0.80;;;10.80;39.40;;;;;;10355560;28;20230;-74
2024/01/04 05:39:12;;;;;;;1.43;0.80;;;10.80;39.00;;;;;;10345818;28;20227;-74
2024/01/04 05:44:17;;;;;;;0.57;0.57;;;10.70;38.90;;;;;;10357656;28;20230;-74
2024/01/04 05:49:20;;;;;;;0.77;0.70;;;10.70;39.50;;;;;;10350434;28;20230;-74
2024/01/04 05:54:23;;;;;;;0.67;0.50;;;10.70;39.30;;;;;;10350473;28;20229;-74
2024/01/04 05:59:28;;;;;;;0.63;0.60;;;10.60;39.30;;;;;;10347576;28;20222;-74
2024/01/04 06:04:31;;;;;;;0.70;0.70;;;10.60;40.00;;;;;;10351875;28;20575;-74
2024/01/04 06:09:34;;;;;;;1.70;1.20;;;10.50;39.50;;;;;;10352605;28;20326;-74
2024/01/04 06:14:38;;;;;;;1.23;0.70;;;10.50;40.00;;;;;;10346654;28;20226;-74
2024/01/04 06:19:43;;;;;;;1.53;0.90;;;10.40;40.30;;;;;;10349320;28;20292;-74
2024/01/04 06:24:47;;;;;;;1.40;0.80;;;10.40;39.80;;;;;;10340441;28;20246;-74
2024/01/04 06:29:51;;;;;;;1.77;1.00;;;10.40;39.80;;;;;;10352192;28;21021;-74
2024/01/04 06:34:54;;;;;;;1.20;1.00;;;10.40;40.30;;;;;;10345707;28;20254;-74
2024/01/04 06:39:58;;;;;;;1.73;1.00;;;10.40;40.30;;;;;;10347811;28;20239;-74
2024/01/04 06:45:02;;;;;;;1.53;0.90;;;10.40;40.30;;;;;;10346108;28;20234;-74
2024/01/04 06:50:07;;;;;;;1.73;1.00;;;10.40;40.30;;;;;;10348583;28;20265;-74
2024/01/04 06:55:20;;;;;;;2.00;0.97;;;10.40;40.30;;;;;;10343936;28;20718;-74
2024/01/04 07:00:25;;;;;;;1.70;1.00;;;10.50;40.30;;;;;;10347300;28;20324;-74
2024/01/04 07:05:28;;;;;;;1.97;0.80;;;10.50;40.40;;;;;;10349306;28;20234;-73
2024/01/04 07:10:31;;;;;;;1.07;0.87;;;10.50;40.40;;;;;;10343083;28;20724;-74
2024/01/04 07:15:36;;;;;;;1.50;0.80;;;10.50;40.40;;;;;;10344250;28;20613;-74
2024/01/04 07:20:43;;;;;;;1.37;1.00;;;10.50;40.40;;;;;;10344841;28;20234;-74
2024/01/04 07:25:47;;;;;;;2.23;1.10;;;10.50;40.40;;;;;;10341522;28;20261;-74
2024/01/04 07:30:51;;;;;;;2.50;1.77;;;10.50;40.40;;;;;;10347487;28;20241;-74
2024/01/04 07:35:55;;;;;;;2.00;1.67;;;10.50;40.40;;;;;;10345754;28;20241;-74
2024/01/04 07:40:58;;;;;;;1.47;1.13;;;10.50;40.40;;;;;;10348133;28;20338;-74
2024/01/04 07:46:03;;;;;;;1.60;1.30;;;10.40;40.30;;;;;;10347691;28;20954;-74
2024/01/04 07:51:07;;;;;;;3.30;1.20;;;10.50;40.40;;;;;;10342216;28;20321;-74
2024/01/04 07:56:10;;;;;;;1.63;0.87;;;10.50;40.40;;;;;;10344463;28;20230;-74
2024/01/04 08:01:14;;;;;;;1.53;1.30;;;10.50;40.40;;;;;;10355181;28;20262;-74
2024/01/04 08:06:17;;;;;;;1.50;1.10;;;10.40;40.30;;;;;;10351068;28;20574;-74
2024/01/04 08:11:21;;;;;;;2.30;0.80;;;10.50;40.40;;;;;;10352357;28;20246;-74
2024/01/04 08:16:26;;;;;;;2.40;1.07;;;10.50;40.40;;;;;;10351956;28;20687;-74
2024/01/04 08:21:29;;;;;;;1.60;0.83;;;10.50;40.40;;;;;;10352295;28;20305;-74
2024/01/04 08:26:32;;;;;;;2.53;1.37;;;10.50;40.40;;;;;;10352426;28;20353;-74
2024/01/04 08:31:37;;;;;;;1.87;1.27;;;10.60;40.50;;;;;;10350352;28;20760;-74
2024/01/04 08:36:40;;;;;;;1.70;0.80;;;10.60;40.50;;;;;;10353584;28;20237;-74
2024/01/04 08:41:43;;;;;;;1.80;1.00;;;10.60;40.50;;;;;;10348943;28;20236;-74
2024/01/04 08:46:50;;;;;;;1.70;1.00;;;10.70;40.50;;;;;;10348981;28;20318;-74
2024/01/04 08:51:53;;;;;;;1.50;0.90;;;10.70;40.50;;;;;;10355537;28;20784;-74
2024/01/04 08:56:56;;;;;;;2.07;0.70;;;10.60;40.50;;;;;;10353021;28;20242;-74
2024/01/04 09:02:01;;;;;;;1.43;0.70;;;10.80;40.60;;;;;;10352233;28;20235;-74
2024/01/04 09:07:07;;;;;;;0.83;0.73;;;10.80;40.60;;;;;;10351883;28;20237;-74
2024/01/04 09:12:10;;;;;;;1.43;0.80;;;10.80;40.40;;;;;;10353334;28;20645;-74
2024/01/04 09:17:15;;;;;;;1.07;0.70;;;10.90;40.20;;;;;;10356836;28;20281;-74
2024/01/04 09:22:18;;;;;;;0.80;0.73;;;10.80;40.50;;;;;;10350352;28;20231;-74
2024/01/04 09:27:22;;;;;;;0.67;0.67;;;10.90;40.20;;;;;;10355841;28;22357;-74
2024/01/04 09:32:26;;;;;;;1.37;0.90;;;11.00;39.90;;;;;;10352834;28;20244;-74
2024/01/04 09:37:30;;;;;;;0.80;0.80;;;11.00;40.10;;;;;;10354366;28;20237;-74
2024/01/04 09:42:37;;;;;;;2.23;1.00;;;11.00;39.70;;;;;;10351474;28;20813;-74
2024/01/04 09:47:44;;;;;;;0.80;0.80;;;11.10;39.90;;;;;;10352971;28;20244;-74
2024/01/04 09:52:47;;;;;;;2.00;0.80;;;11.10;39.90;;;;;;10346771;28;20230;-74
2024/01/04 09:57:51;;;;;;;2.40;0.90;;;11.20;39.50;;;;;;10347283;28;20222;-75
2024/01/04 10:02:55;;;;;;;1.97;1.00;;;11.20;39.30;;;;;;10347650;28;20224;-74
2024/01/04 10:08:10;;;;;;;0.77;0.77;;;11.20;39.30;;;;;;10347502;28;20238;-74
2024/01/04 10:13:13;;;;;;;1.83;1.37;;;11.20;39.10;;;;;;10352322;28;20219;-74
2024/01/04 10:18:18;;;;;;;1.50;0.87;;;11.20;39.10;;;;;;10349128;28;20761;-74
2024/01/04 10:23:22;;;;;;;1.90;0.97;;;11.30;39.10;;;;;;10351505;28;20245;-74
2024/01/04 10:28:25;;;;;;;3.53;1.00;;;11.30;39.00;;;;;;10349625;28;20253;-74
2024/01/04 10:33:30;;;;;;;1.10;0.80;;;11.30;38.90;;;;;;10351256;28;20244;-74
2024/01/04 10:38:36;;;;;;;3.27;0.90;;;11.40;38.80;;;;;;10348038;28;20238;-74
2024/01/04 10:43:42;;;;;;;1.87;1.20;;;11.40;38.80;;;;;;10347728;28;20728;-74
2024/01/04 10:48:48;;;;;;;1.97;1.10;;;11.40;38.70;;;;;;10347113;28;20234;-74
2024/01/04 10:53:56;;;;;;;1.83;0.90;;;11.50;38.80;;;;;;10344098;28;20305;-74
2024/01/04 10:59:00;;;;;;;2.53;1.20;;;11.50;38.80;;;;;;10346557;28;20222;-74
2024/01/04 11:04:05;;;;;;;1.40;1.00;;;11.60;38.60;;;;;;10345162;28;20226;-74
2024/01/04 11:09:12;;;;;;;3.53;1.17;;;11.70;38.40;;;;;;10345012;28;20223;-74
2024/01/04 11:14:15;;;;;;;1.27;0.90;;;11.70;38.20;;;;;;10343707;28;20261;-74
2024/01/04 11:19:41;;;;;;;1.80;0.83;;;11.80;37.90;;;;;;10340520;28;20258;-74
2024/01/04 11:24:55;;;;;;;2.23;1.10;;;11.90;37.90;;;;;;10346314;28;20232;-74
2024/01/04 11:29:59;;;;;;;1.57;0.90;;;12.00;38.00;;;;;;10342834;28;20233;-74
2024/01/04 11:35:04;;;;;;;2.60;1.10;;;12.10;38.00;;;;;;10353995;28;20225;-74
2024/01/04 11:40:08;;;;;;;1.57;0.80;;;12.20;37.80;;;;;;10355957;28;20226;-74
2024/01/04 11:45:15;;;;;;;1.93;0.90;;;12.20;37.90;;;;;;10354714;28;20226;-74
2024/01/04 11:50:25;;;;;;;1.87;1.40;;;12.10;38.00;;;;;;10359650;28;20246;-74
2024/01/04 11:55:29;;;;;;;1.53;1.10;;;12.00;38.00;;;;;;10355246;28;20722;-74
2024/01/04 12:00:36;;;;;;;2.50;1.07;;;12.00;38.20;;;;;;10354434;28;20238;-74
2024/01/04 12:05:43;;;;;;;2.37;0.77;;;12.00;38.20;;;;;;10356180;28;20238;-74
2024/01/04 12:10:52;;;;;;;1.40;0.90;;;11.80;37.90;;;;;;10351767;28;20899;-75
2024/01/04 12:15:55;;;;;;;1.30;0.90;;;11.90;38.00;;;;;;10351590;28;20233;-74
2024/01/04 12:21:03;;;;;;;1.90;1.10;;;12.00;38.40;;;;;;10351981;28;20254;-74
2024/01/04 12:26:18;;;;;;;2.23;1.10;;;12.00;38.40;;;;;;10355049;28;20289;-74
2024/01/04 12:31:23;;;;;;;2.47;1.37;;;12.10;38.60;;;;;;10352933;28;20238;-74
2024/01/04 12:36:28;;;;;;;3.27;1.60;;;12.30;38.70;;;;;;10350817;28;20254;-74
2024/01/04 12:41:31;;;;;;;6.37;5.20;;;12.40;38.10;;;;;;10350613;28;20316;-74
2024/01/04 12:46:35;;;;;;;5.03;2.50;;;12.60;37.90;;;;;;10352195;28;20318;-74
2024/01/04 12:51:42;;;;;;;2.43;1.40;;;12.70;37.50;;;;;;10346532;28;20333;-74
2024/01/04 12:56:46;;;;;;;1.03;0.70;;;12.70;36.80;;;;;;10358586;28;20230;-74
2024/01/04 13:01:49;;;;;;;1.67;0.90;;;12.80;36.40;;;;;;10351209;28;20233;-74
2024/01/04 13:06:54;;;;;;;2.33;1.10;;;12.80;36.30;;;;;;10347635;28;20241;-74
2024/01/04 13:11:57;;;;;;;0.93;0.80;;;12.80;36.30;;;;;;10350001;28;20226;-74
2024/01/04 13:17:01;;;;;;;2.10;0.90;;;12.90;36.60;;;;;;10349847;28;20288;-74
2024/01/04 13:22:05;;;;;;;1.60;1.00;;;12.90;36.50;;;;;;10348988;28;20857;-74
2024/01/04 13:27:08;;;;;;;1.60;0.97;;;12.90;36.20;;;;;;10347450;28;20596;-74
2024/01/04 13:32:12;;;;;;;1.37;0.90;;;12.90;36.30;;;;;;10350011;28;20230;-74
2024/01/04 13:37:16;;;;;;;1.40;0.80;;;12.90;36.20;;;;;;10342383;28;20230;-74
2024/01/04 13:42:20;;;;;;;1.70;0.87;;;13.00;36.10;;;;;;10345445;28;20654;-74
2024/01/04 13:47:23;;;;;;;1.90;0.80;;;12.90;35.80;;;;;;10348096;28;20253;-74
2024/01/04 13:52:28;;;;;;;1.60;0.90;;;12.90;35.70;;;;;;10344623;28;20253;-74
2024/01/04 13:57:31;;;;;;;1.73;0.90;;;12.90;35.40;;;;;;10345477;28;20230;-74
2024/01/04 14:02:35;;;;;;;1.50;0.80;;;12.80;35.30;;;;;;10349788;28;20631;-74
2024/01/04 14:07:39;;;;;;;1.67;0.90;;;12.70;35.40;;;;;;10344685;28;20258;-74
2024/01/04 14:12:42;;;;;;;1.00;0.70;;;12.60;35.30;;;;;;10348305;28;20261;-74
2024/01/04 14:17:45;;;;;;;2.03;0.80;;;12.50;35.60;;;;;;10345214;28;20262;-74
2024/01/04 14:22:51;;;;;;;2.00;1.20;;;12.40;36.00;;;;;;10349104;28;20976;-74
2024/01/04 14:27:55;;;;;;;1.63;0.87;;;12.20;35.80;;;;;;10345414;28;20240;-74
2024/01/04 14:32:58;;;;;;;2.17;1.00;;;12.00;35.90;;;;;;10346212;28;20313;-74
2024/01/04 14:38:03;;;;;;;2.37;1.00;;;11.90;36.10;;;;;;10342235;28;20218;-73
2024/01/04 14:43:07;;;;;;;1.63;0.90;;;11.70;35.90;;;;;;10345852;28;20222;-74
2024/01/04 14:48:10;;;;;;;1.70;0.80;;;11.60;36.00;;;;;;10344455;28;20226;-74
2024/01/04 14:53:15;;;;;;;3.43;1.10;;;11.60;36.30;;;;;;10347533;28;20349;-74
2024/01/04 14:58:18;;;;;;;2.83;1.10;;;11.60;36.20;;;;;;10344232;28;20230;-73
2024/01/04 15:03:21;;;;;;;1.73;0.80;;;11.50;36.30;;;;;;10343290;28;20256;-74
2024/01/04 15:08:28;;;;;;;1.87;0.97;;;11.50;36.20;;;;;;10356877;28;20591;-74
2024/01/04 15:13:31;;;;;;;1.73;1.03;;;11.50;36.30;;;;;;10355772;28;20226;-74
2024/01/04 15:18:34;;;;;;;1.63;1.00;;;11.50;36.30;;;;;;10355039;28;20230;-74
2024/01/04 15:23:39;;;;;;;1.73;1.00;;;11.40;36.20;;;;;;10354821;28;20234;-74
2024/01/04 15:28:43;;;;;;;1.87;1.10;;;11.50;36.20;;;;;;10358446;28;20245;-74
2024/01/04 15:33:48;;;;;;;1.90;0.93;;;11.40;36.00;;;;;;10350069;28;20709;-74
2024/01/04 15:38:53;;;;;;;1.90;1.20;;;11.40;36.80;;;;;;10353778;28;20234;-74
2024/01/04 15:43:59;;;;;;;2.93;1.97;;;11.30;35.90;;;;;;10355730;28;20700;-74
2024/01/04 15:49:03;;;;;;;2.20;1.10;;;11.30;36.10;;;;;;10353789;28;20235;-74
2024/01/04 15:54:08;;;;;;;1.83;1.60;;;11.20;36.10;;;;;;10354057;28;20258;-74
2024/01/04 15:59:11;;;;;;;3.90;2.37;;;11.20;36.10;;;;;;10345495;28;20227;-74
2024/01/04 16:04:14;;;;;;;2.67;2.30;;;11.20;36.10;;;;;;10352615;28;20307;-74
2024/01/04 16:09:19;;;;;;;2.53;2.13;;;11.10;36.00;;;;;;10351416;28;20231;-74
2024/01/04 16:14:23;;;;;;;2.13;1.40;;;11.10;36.10;;;;;;10346799;28;20799;-73
2024/01/04 16:19:26;;;;;;;2.07;1.30;;;11.10;36.10;;;;;;10350349;28;20434;-74
2024/01/04 16:24:30;;;;;;;3.67;2.40;;;11.10;36.30;;;;;;10349635;28;20231;-74
2024/01/04 16:29:34;;;;;;;2.40;1.90;;;11.10;36.20;;;;;;10351631;28;20240;-74
2024/01/04 16:34:37;;;;;;;3.47;1.93;;;11.10;36.10;;;;;;10353857;28;20292;-74
2024/01/04 16:39:41;;;;;;;2.17;1.70;;;11.10;36.20;;;;;;10355774;28;20647;-74
2024/01/04 16:44:45;;;;;;;2.60;1.30;;;11.10;36.20;;;;;;10353496;28;20226;-74
2024/01/04 16:49:48;;;;;;;2.47;1.47;;;11.00;36.30;;;;;;10351812;28;20242;-75
2024/01/04 16:54:54;;;;;;;2.50;1.60;;;11.00;36.40;;;;;;10349737;28;20222;-75
2024/01/04 16:59:57;;;;;;;3.80;1.50;;;11.00;36.50;;;;;;10348894;28;20838;-75
2024/01/04 17:05:00;;;;;;;2.50;1.43;;;11.00;36.60;;;;;;10347691;28;20276;-75
2024/01/04 17:10:06;;;;;;;1.73;1.20;;;11.00;36.70;;;;;;10344595;28;20259;-75
2024/01/04 17:15:10;;;;;;;2.03;1.50;;;11.00;36.80;;;;;;10347149;28;20309;-75
2024/01/04 17:20:13;;;;;;;2.83;1.70;;;11.00;36.90;;;;;;10344373;28;20263;-75
2024/01/04 17:25:19;;;;;;;3.90;2.27;;;11.00;37.10;;;;;;10341390;28;20226;-75
2024/01/04 17:30:22;;;;;;;2.53;2.07;;;11.00;37.20;;;;;;10342524;28;20808;-75
2024/01/04 17:35:26;;;;;;;3.03;1.83;;;10.90;37.00;;;;;;10349824;28;20234;-75
2024/01/04 17:40:30;;;;;;;3.77;2.90;;;10.90;37.20;;;;;;10343344;28;20244;-75
2024/01/04 17:45:34;;;;;;;4.93;3.70;;;10.80;37.20;;;;;;10349824;28;20234;-76
2024/01/04 17:50:37;;;;;;;3.77;2.67;;;10.80;37.20;;;;;;10345579;28;20239;-75
2024/01/04 17:55:42;;;;;;;4.37;3.03;;;10.70;37.00;;;;;;10345589;28;20241;-75
2024/01/04 18:00:45;;;;;;;3.80;3.00;;;10.60;37.30;;;;;;10309401;28;20737;-75
2024/01/04 18:05:48;;;;;;;5.47;3.77;;;10.60;37.20;;;;;;10306968;28;20232;-75
2024/01/04 18:10:53;;;;;;;3.57;2.13;;;10.60;37.10;;;;;;10331893;28;20261;-75
2024/01/04 18:15:56;;;;;;;2.73;1.90;;;10.60;37.20;;;;;;10311568;28;20224;-75
2024/01/04 18:20:59;;;;;;;3.10;2.80;;;10.50;37.10;;;;;;10312090;28;20316;-75
2024/01/04 18:26:05;;;;;;;4.13;2.70;;;10.50;37.20;;;;;;10303987;28;20235;-75
2024/01/04 18:31:09;;;;;;;3.57;2.20;;;10.50;37.40;;;;;;10310932;28;20235;-75
2024/01/04 18:36:13;;;;;;;3.87;2.60;;;10.50;37.20;;;;;;10321873;28;20227;-75
2024/01/04 18:41:17;;;;;;;2.73;2.13;;;10.50;37.20;;;;;;10343128;28;20227;-75
2024/01/04 18:46:20;;;;;;;2.77;1.97;;;10.60;37.10;;;;;;10346343;28;20226;-75
2024/01/04 18:51:24;;;;;;;1.90;1.70;;;10.50;37.00;;;;;;10345750;28;20237;-75
2024/01/04 18:56:29;;;;;;;5.83;2.70;;;10.40;37.10;;;;;;10345313;28;20223;-75
2024/01/04 19:01:33;;;;;;;5.50;3.53;;;10.30;37.50;;;;;;10346656;28;20226;-75
2024/01/04 19:06:36;;;;;;;3.23;2.80;;;10.20;37.60;;;;;;10340928;28;20262;-75
2024/01/04 19:11:40;;;;;;;4.17;3.20;;;10.20;37.60;;;;;;10337781;28;20448;-75
2024/01/04 19:16:44;;;;;;;3.13;2.30;;;10.20;37.70;;;;;;10339852;28;20227;-75
2024/01/04 19:21:47;;;;;;;2.57;2.30;;;10.10;37.50;;;;;;10340969;28;20318;-75
2024/01/04 19:26:52;;;;;;;3.80;2.50;;;10.00;37.70;;;;;;10342832;28;20227;-75
2024/01/04 19:31:56;;;;;;;4.20;2.93;;;10.00;38.00;;;;;;10341934;28;20322;-75
2024/01/04 19:36:59;;;;;;;4.87;2.13;;;9.90;38.90;;;;;;10339888;28;20237;-75
2024/01/04 19:42:04;;;;;;;2.00;1.80;;;9.90;39.10;;;;;;10339700;28;20261;-75
2024/01/04 19:47:07;;;;;;;3.03;1.77;;;9.90;39.20;;;;;;10338217;28;20255;-75
2024/01/04 19:52:10;;;;;;;2.57;2.07;;;10.00;37.90;;;;;;10336527;28;20242;-75
2024/01/04 19:57:15;;;;;;;2.47;1.90;;;10.10;37.60;;;;;;10347531;28;20632;-75
2024/01/04 20:02:18;;;;;;;2.53;2.10;;;10.10;37.50;;;;;;10349331;28;20258;-75
2024/01/04 20:07:21;;;;;;;3.97;2.13;;;10.10;37.30;;;;;;10351138;28;22851;-75
2024/01/04 20:12:26;;;;;;;3.20;2.23;;;10.00;37.20;;;;;;10345565;28;20658;-75
2024/01/04 20:17:30;;;;;;;4.20;3.03;;;10.00;37.40;;;;;;10352213;28;20615;-75
2024/01/04 20:22:33;;;;;;;4.47;3.50;;;9.90;38.20;;;;;;10348682;28;20604;-75
2024/01/04 20:27:41;;;;;;;5.70;3.93;;;9.80;38.20;;;;;;10348248;28;20229;-75
2024/01/04 20:32:44;;;;;;;5.67;3.67;;;9.70;38.50;;;;;;10348707;28;20234;-75
2024/01/04 20:37:48;;;;;;;5.03;3.70;;;9.60;38.30;;;;;;10349870;28;20233;-75
2024/01/04 20:42:53;;;;;;;5.47;4.50;;;9.70;38.50;;;;;;10345823;28;20597;-75
2024/01/04 20:47:56;;;;;;;9.53;7.13;;;9.70;38.60;;;;;;10347213;28;20302;-75
2024/01/04 20:53:00;;;;;;;10.63;6.73;;;9.60;38.20;;;;;;10349866;28;20233;-75
2024/01/04 20:58:05;;;;;;;5.03;4.53;;;9.50;38.30;;;;;;10345999;28;20314;-75
2024/01/04 21:03:08;;;;;;;5.37;4.80;;;9.40;38.70;;;;;;10348202;28;20301;-75
2024/01/04 21:08:13;;;;;;;5.57;4.17;;;9.20;38.30;;;;;;10345988;28;20276;-75
2024/01/04 21:13:18;;;;;;;4.83;3.60;;;9.10;38.70;;;;;;10344761;28;20222;-75
2024/01/04 21:18:21;;;;;;;4.53;3.70;;;9.10;38.90;;;;;;10347730;28;20272;-75
2024/01/04 21:23:24;;;;;;;4.73;3.97;;;9.10;38.70;;;;;;10346903;28;20226;-75
2024/01/04 21:28:29;;;;;;;4.20;3.80;;;9.10;38.60;;;;;;10343931;28;20236;-75
2024/01/04 21:33:33;;;;;;;5.10;4.60;;;9.10;38.70;;;;;;10343296;28;20705;-75
2024/01/04 21:38:37;;;;;;;4.87;4.13;;;9.10;38.50;;;;;;10343298;28;20222;-75
2024/01/04 21:43:41;;;;;;;4.80;4.37;;;9.00;38.20;;;;;;10347727;28;20306;-75
2024/01/04 21:48:45;;;;;;;5.33;4.43;;;8.90;38.60;;;;;;10349040;28;20237;-75
2024/01/04 21:53:50;;;;;;;4.50;3.33;;;8.80;38.80;;;;;;10345486;28;20227;-75
2024/01/04 21:58:55;;;;;;;4.77;3.27;;;8.70;39.10;;;;;;10347972;28;20245;-75
2024/01/04 22:03:59;;;;;;;2.70;2.33;;;8.60;39.70;;;;;;10344912;28;20249;-75
2024/01/04 22:09:05;;;;;;;3.90;2.80;;;8.60;39.70;;;;;;10342575;28;20226;-75
2024/01/04 22:14:09;;;;;;;3.50;3.17;;;8.60;39.70;;;;;;10340912;28;20247;-76
2024/01/04 22:19:13;;;;;;;3.20;2.60;;;8.60;39.70;;;;;;10342696;28;20234;-75
2024/01/04 22:24:17;;;;;;;3.20;2.37;;;8.70;39.80;;;;;;10340885;28;20773;-75
2024/01/04 22:29:22;;;;;;;2.30;2.10;;;8.70;39.80;;;;;;10346801;28;20231;-75
2024/01/04 22:34:25;;;;;;;3.87;2.53;;;8.70;39.80;;;;;;10347484;28;20232;-75
2024/01/04 22:39:29;;;;;;;4.40;2.80;;;8.70;39.80;;;;;;10344655;28;20249;-75
2024/01/04 22:44:34;;;;;;;3.43;3.13;;;8.70;39.70;;;;;;10346530;28;20235;-75
2024/01/04 22:49:37;;;;;;;3.43;3.13;;;8.70;39.50;;;;;;10341423;28;20257;-75
2024/01/04 22:54:42;;;;;;;4.60;2.60;;;8.70;39.30;;;;;;10341185;28;20228;-75
2024/01/04 22:59:46;;;;;;;3.23;2.40;;;8.70;39.30;;;;;;10340847;28;20232;-75
2024/01/04 23:04:50;;;;;;;4.30;2.47;;;8.70;39.40;;;;;;10340102;28;20720;-75
2024/01/04 23:09:53;;;;;;;3.50;2.30;;;8.70;39.20;;;;;;10344206;28;20303;-75
2024/01/04 23:14:58;;;;;;;2.97;2.43;;;8.70;39.30;;;;;;10341743;28;20226;-75
2024/01/04 23:20:06;;;;;;;3.17;2.47;;;8.70;39.70;;;;;;10343029;28;20242;-75
2024/01/04 23:25:11;;;;;;;3.00;2.70;;;8.70;39.50;;;;;;10340134;28;20254;-75
2024/01/04 23:30:15;;;;;;;4.07;2.50;;;8.70;39.50;;;;;;10348639;28;20317;-75
2024/01/04 23:35:19;;;;;;;4.20;2.80;;;8.60;39.60;;;;;;10351327;28;20292;-75
2024/01/04 23:40:24;;;;;;;2.80;2.20;;;8.70;39.20;;;;;;10350043;28;20258;-75
2024/01/04 23:45:28;;;;;;;5.00;2.60;;;8.70;39.10;;;;;;10356572;28;20585;-75
2024/01/04 23:50:32;;;;;;;4.27;2.33;;;8.70;39.40;;;;;;10349169;28;20242;-75
2024/01/04 23:55:35;;;;;;;3.97;2.90;;;8.60;39.30;;;;;;10346526;28;20618;-75
